»·PEaware :: N122LL KMHV-KSMX

N122LL :: KMHV-KSMX

FLIGHT INFORMATION

Flight Status: Arrived
Operator: Privately registered:
United States
More flights under this callsign
Pilot: Danil K. (16650)
Aircraft: Unknown
(LEG2)
More flights by this aircraft type
Origin: KMHV Mojave
United States
Destination: KSMX Santa Maria Pub/Capt Hancock
United States
More flights between these airports :: More routes between these airports
Route: +LHS RZS
File this flight plan on PilotEdge
Remarks:
Altitude:
(Current/Filed)
10,000ft
Speed:
(Current/Filed)
220kts
Departed: 19-Sep-17 07:39 AM
Arrived: 19-Sep-17 08:18 AM
Distance/Time
Traveled:
113nm/0:39
Distance/Time
To Go:
Arrived

Flight Plot

Page will automatically refresh every two minutes.


Map Options




Map Legend


Flown Route
Filed Route
Departure Airport
Arrival Airport
Navaid (VOR, NDB)
Fix

Horizontal Profiles

Position Reports

Time Latitude Longitude Heading Altitude Ground
Speed
19-Sep-17 07:17 35.052488 -118.144581 311 2794ft 0kts
19-Sep-17 07:18 35.052488 -118.144581 311 2794ft 0kts
19-Sep-17 07:19 35.052488 -118.144581 311 2794ft 0kts
19-Sep-17 07:20 35.052488 -118.144581 311 2794ft 0kts
19-Sep-17 07:21 35.052488 -118.144581 311 2794ft 0kts
19-Sep-17 07:22 35.052488 -118.144581 311 2794ft 0kts
19-Sep-17 07:23 35.052488 -118.144581 311 2794ft 0kts
19-Sep-17 07:24 35.052488 -118.144581 311 2794ft 0kts
19-Sep-17 07:25 35.052488 -118.144581 311 2794ft 0kts
19-Sep-17 07:26 35.052488 -118.144581 311 2794ft 0kts
19-Sep-17 07:27 35.052488 -118.144581 311 2794ft 0kts
19-Sep-17 07:28 35.052488 -118.144581 311 2794ft 0kts
19-Sep-17 07:29 35.052488 -118.144581 311 2794ft 0kts
19-Sep-17 07:30 35.052488 -118.144580 311 2794ft 0kts
19-Sep-17 07:31 35.052488 -118.144580 311 2794ft 0kts
19-Sep-17 07:32 35.052488 -118.144580 311 2794ft 0kts
19-Sep-17 07:33 35.052488 -118.144580 311 2794ft 0kts
19-Sep-17 07:34 35.052488 -118.144580 311 2794ft 0kts
19-Sep-17 07:35 35.052488 -118.144580 311 2794ft 0kts
19-Sep-17 07:36 35.052488 -118.144580 311 2794ft 0kts
19-Sep-17 07:37 35.052488 -118.144582 311 2794ft 0kts
19-Sep-17 07:38 35.054036 -118.144537 324 2794ft 9kts
19-Sep-17 07:39 35.057288 -118.148414 315 2794ft 0kts
19-Sep-17 07:40 35.057555 -118.143694 87 2794ft 33kts
19-Sep-17 07:41 35.058568 -118.142623 357 2794ft 1kts
19-Sep-17 07:42 35.058924 -118.142652 353 2794ft 3kts
19-Sep-17 07:43 35.058941 -118.157463 265 2916ft 110kts
19-Sep-17 07:44 35.040501 -118.193769 230 3931ft 165kts
19-Sep-17 07:45 35.003717 -118.237979 230 4681ft 199kts
19-Sep-17 07:46 34.963747 -118.286308 230 5586ft 203kts
19-Sep-17 07:47 34.925034 -118.332507 230 6943ft 185kts
19-Sep-17 07:48 34.889108 -118.374299 230 8318ft 172kts
19-Sep-17 07:49 34.853594 -118.413328 222 9524ft 171kts
19-Sep-17 07:50 34.814790 -118.451250 224 10038ft 198kts
19-Sep-17 07:51 34.768034 -118.496069 223 10016ft 224kts
19-Sep-17 07:52 34.718014 -118.543677 223 10014ft 231kts
19-Sep-17 07:53 34.670225 -118.594705 255 10032ft 222kts
19-Sep-17 07:54 34.680641 -118.666522 286 10047ft 218kts
19-Sep-17 07:55 34.691483 -118.738658 265 10047ft 221kts
19-Sep-17 07:56 34.671883 -118.810128 251 10045ft 224kts
19-Sep-17 07:57 34.653009 -118.882511 259 10017ft 225kts
19-Sep-17 07:58 34.640186 -118.957294 261 10016ft 228kts
19-Sep-17 07:59 34.628002 -119.032996 260 10010ft 229kts
19-Sep-17 08:00 34.615756 -119.109406 260 10001ft 230kts
19-Sep-17 08:01 34.603380 -119.185968 260 9997ft 232kts
19-Sep-17 08:02 34.591059 -119.262752 260 9995ft 232kts
19-Sep-17 08:03 34.578723 -119.339771 260 9988ft 232kts
19-Sep-17 08:04 34.566323 -119.416940 260 9985ft 232kts
19-Sep-17 08:05 34.553700 -119.495922 260 9102ft 243kts
19-Sep-17 08:06 34.540453 -119.576974 260 8169ft 237kts
19-Sep-17 08:07 34.528548 -119.652248 261 7618ft 221kts
19-Sep-17 08:08 34.517027 -119.724256 260 7056ft 214kts
19-Sep-17 08:09 34.512992 -119.794165 294 6364ft 209kts
19-Sep-17 08:10 34.541302 -119.852314 301 6006ft 186kts
19-Sep-17 08:11 34.567528 -119.903995 301 6012ft 181kts
19-Sep-17 08:12 34.594622 -119.957274 301 6011ft 188kts
19-Sep-17 08:13 34.622350 -120.011724 302 6011ft 191kts
19-Sep-17 08:14 34.650354 -120.067436 301 5841ft 203kts
19-Sep-17 08:15 34.680988 -120.128080 301 4954ft 215kts
19-Sep-17 08:16 34.712640 -120.190736 301 4132ft 216kts
19-Sep-17 08:17 34.743679 -120.249402 309 3883ft 201kts
19-Sep-17 08:18 34.782459 -120.302509 312 3090ft 214kts
19-Sep-17 08:19 34.820484 -120.355890 312 2797ft 207kts
19-Sep-17 08:20 34.861362 -120.408459 315 1584ft 230kts
19-Sep-17 08:21 34.892467 -120.445407 315 312ft 91kts
19-Sep-17 08:22 34.898794 -120.452028 79 264ft 4kts
19-Sep-17 08:23 34.898844 -120.450064 86 264ft 0kts
19-Sep-17 08:24 34.898852 -120.449773 94 264ft 6kts
19-Sep-17 08:25 34.898534 -120.448213 46 264ft 0kts

Navigation Log

Ident Type
1. KMHV Airport
2. LHS Navaid
3. RZS Navaid
4. KSMX Airport